Time;durP1;ratioP1;P1;durP2;ratioP2;P2;SDS_P1;SDS_P2;PMS_P1;PMS_P2;Temp;Humidity;BMP_temperature;BMP_pressure;BME280_temperature;BME280_humidity;BME280_pressure;Samples;Min_cycle;Max_cycle;Signal;HPM_P1;HPM_P2
2023/12/17 00:01:31;;;;;;;12.00;6.90;;;;;;;;;;4934478;29;20054;-58
2023/12/17 00:03:58;;;;;;;14.30;7.20;;;;;;;;;;4918656;29;20039;-58
2023/12/17 00:06:24;;;;;;;13.10;7.43;;;;;;;;;;4890786;29;20044;-59
2023/12/17 00:08:50;;;;;;;11.30;7.20;;;;;;;;;;4916418;29;20051;-58
2023/12/17 00:11:16;;;;;;;14.45;7.80;;;;;;;;;;4928774;29;20043;-59
2023/12/17 00:13:43;;;;;;;13.00;7.18;;;;;;;;;;4933877;29;20063;-55
2023/12/17 00:16:09;;;;;;;13.98;6.80;;;;;;;;;;4918157;29;20035;-58
2023/12/17 00:18:35;;;;;;;9.93;6.38;;;;;;;;;;4913685;29;20058;-59
2023/12/17 00:21:02;;;;;;;14.63;7.53;;;;;;;;;;4917574;29;20043;-57
2023/12/17 00:23:29;;;;;;;11.68;7.00;;;;;;;;;;4916934;29;20514;-60
2023/12/17 00:25:55;;;;;;;13.43;7.70;;;;;;;;;;4916942;29;20051;-57
2023/12/17 00:28:21;;;;;;;12.27;6.15;;;;;;;;;;4916266;29;20051;-55
2023/12/17 00:30:47;;;;;;;12.38;6.07;;;;;;;;;;4932126;29;20048;-61
2023/12/17 00:33:13;;;;;;;9.70;6.30;;;;;;;;;;4911669;29;20060;-57
2023/12/17 00:35:40;;;;;;;12.38;7.03;;;;;;;;;;4915355;29;20526;-59
2023/12/17 00:38:06;;;;;;;10.85;6.38;;;;;;;;;;4933882;29;20058;-61
2023/12/17 00:40:32;;;;;;;10.23;6.10;;;;;;;;;;4921938;29;20043;-59
2023/12/17 00:42:58;;;;;;;18.58;8.77;;;;;;;;;;4932129;29;20039;-59
2023/12/17 00:45:25;;;;;;;17.88;9.18;;;;;;;;;;4932377;29;20050;-59
2023/12/17 00:47:51;;;;;;;17.02;8.65;;;;;;;;;;4900404;29;20055;-59
2023/12/17 00:50:17;;;;;;;14.05;7.30;;;;;;;;;;4914729;29;20028;-58
2023/12/17 00:52:43;;;;;;;13.40;5.97;;;;;;;;;;4932715;29;20399;-59
2023/12/17 00:55:09;;;;;;;13.00;6.75;;;;;;;;;;4933326;29;20044;-59
2023/12/17 00:57:35;;;;;;;11.90;7.10;;;;;;;;;;4927581;29;20047;-59
2023/12/17 01:00:03;;;;;;;10.40;6.30;;;;;;;;;;4916840;29;20083;-60
2023/12/17 01:02:31;;;;;;;14.27;7.10;;;;;;;;;;4933061;29;20051;-62
2023/12/17 01:04:57;;;;;;;12.57;7.35;;;;;;;;;;4916768;29;20054;-59
2023/12/17 01:07:23;;;;;;;13.40;7.38;;;;;;;;;;4933027;29;20463;-59
2023/12/17 01:09:50;;;;;;;12.38;6.90;;;;;;;;;;4931802;29;20039;-59
2023/12/17 01:12:16;;;;;;;13.15;7.43;;;;;;;;;;4908834;29;20044;-59
2023/12/17 01:14:42;;;;;;;13.82;7.03;;;;;;;;;;4931823;29;20048;-60
2023/12/17 01:17:08;;;;;;;11.40;7.32;;;;;;;;;;4930023;29;20048;-60
2023/12/17 01:19:38;;;;;;;13.90;7.82;;;;;;;;;;4916937;29;20055;-55
2023/12/17 01:22:05;;;;;;;12.60;7.50;;;;;;;;;;4931137;29;20055;-59
2023/12/17 01:24:32;;;;;;;14.98;7.80;;;;;;;;;;4900167;29;20040;-58
2023/12/17 01:26:59;;;;;;;15.07;7.90;;;;;;;;;;4928332;29;20074;-59
2023/12/17 01:29:25;;;;;;;15.50;7.93;;;;;;;;;;4915028;29;20491;-57
2023/12/17 01:31:51;;;;;;;14.90;8.23;;;;;;;;;;4904586;29;20052;-60
2023/12/17 01:34:20;;;;;;;17.92;8.88;;;;;;;;;;4922262;29;20039;-57
2023/12/17 01:36:46;;;;;;;17.40;9.05;;;;;;;;;;4915075;29;20051;-59
2023/12/17 01:39:12;;;;;;;16.35;8.55;;;;;;;;;;4920273;29;20040;-61
2023/12/17 01:41:38;;;;;;;14.75;8.50;;;;;;;;;;4907776;29;20058;-59
2023/12/17 01:44:05;;;;;;;12.93;8.23;;;;;;;;;;4916163;29;20407;-58
2023/12/17 01:46:31;;;;;;;15.75;7.82;;;;;;;;;;4921072;29;20060;-58
2023/12/17 01:48:58;;;;;;;12.52;7.57;;;;;;;;;;4914546;29;20047;-59
2023/12/17 01:51:25;;;;;;;14.25;7.63;;;;;;;;;;4896930;29;20066;-58
2023/12/17 01:53:52;;;;;;;11.77;7.40;;;;;;;;;;4915915;29;20067;-59
2023/12/17 01:56:18;;;;;;;13.95;8.02;;;;;;;;;;4915140;29;20043;-59
2023/12/17 01:58:48;;;;;;;13.40;8.18;;;;;;;;;;4915625;29;20070;-60
2023/12/17 02:01:14;;;;;;;12.27;7.35;;;;;;;;;;4930884;29;20051;-59
2023/12/17 02:03:41;;;;;;;11.63;6.95;;;;;;;;;;4899069;29;20054;-61
2023/12/17 02:06:10;;;;;;;11.20;6.65;;;;;;;;;;4904962;29;20415;-60
2023/12/17 02:08:36;;;;;;;9.77;6.13;;;;;;;;;;4904954;29;20052;-60
2023/12/17 02:11:03;;;;;;;10.95;6.35;;;;;;;;;;4915338;29;20484;-59
2023/12/17 02:13:29;;;;;;;12.93;6.10;;;;;;;;;;4911459;29;20102;-59
2023/12/17 02:15:55;;;;;;;11.63;6.00;;;;;;;;;;4914982;29;20067;-61
2023/12/17 02:18:21;;;;;;;10.07;5.60;;;;;;;;;;4896064;29;20050;-60
2023/12/17 02:20:47;;;;;;;10.27;5.93;;;;;;;;;;4923885;29;20079;-61
2023/12/17 02:23:13;;;;;;;10.05;6.68;;;;;;;;;;4928877;29;20533;-61
2023/12/17 02:25:39;;;;;;;10.32;5.88;;;;;;;;;;4932415;29;20039;-60
2023/12/17 02:28:05;;;;;;;11.18;5.90;;;;;;;;;;4915876;29;20039;-58
2023/12/17 02:30:31;;;;;;;9.02;5.95;;;;;;;;;;4916557;29;20035;-59
2023/12/17 02:32:58;;;;;;;9.02;5.35;;;;;;;;;;4932847;29;20032;-61
2023/12/17 02:35:25;;;;;;;9.48;5.53;;;;;;;;;;4931249;29;20423;-59
2023/12/17 02:37:51;;;;;;;11.27;5.10;;;;;;;;;;4911008;29;20095;-59
2023/12/17 02:40:17;;;;;;;11.00;5.90;;;;;;;;;;4899922;29;20047;-60
2023/12/17 02:42:44;;;;;;;10.80;5.57;;;;;;;;;;4881968;29;20066;-60
2023/12/17 02:45:11;;;;;;;11.55;5.43;;;;;;;;;;4931517;29;20054;-60
2023/12/17 02:47:37;;;;;;;11.52;5.90;;;;;;;;;;4915239;29;20418;-60
2023/12/17 02:50:04;;;;;;;10.50;5.88;;;;;;;;;;4929925;29;20047;-60
2023/12/17 02:52:30;;;;;;;10.05;5.60;;;;;;;;;;4933665;29;20043;-61
2023/12/17 02:54:57;;;;;;;11.10;6.07;;;;;;;;;;4903394;29;20036;-61
2023/12/17 02:57:25;;;;;;;9.00;5.78;;;;;;;;;;4916500;29;20038;-60
2023/12/17 02:59:54;;;;;;;8.85;5.13;;;;;;;;;;4918006;29;20051;-59
2023/12/17 03:02:21;;;;;;;10.18;5.25;;;;;;;;;;4919460;29;20044;-59
2023/12/17 03:04:47;;;;;;;8.50;5.03;;;;;;;;;;4919647;29;20039;-59
2023/12/17 03:07:13;;;;;;;10.57;5.80;;;;;;;;;;4902284;29;20032;-57
2023/12/17 03:09:40;;;;;;;9.93;5.18;;;;;;;;;;4932718;29;20052;-60
2023/12/17 03:12:06;;;;;;;8.35;5.10;;;;;;;;;;4917470;29;20054;-60
2023/12/17 03:14:32;;;;;;;8.57;5.38;;;;;;;;;;4910615;29;20052;-59
2023/12/17 03:16:58;;;;;;;8.60;4.93;;;;;;;;;;4904433;29;20042;-60
2023/12/17 03:19:24;;;;;;;7.68;4.97;;;;;;;;;;4921422;29;20036;-59
2023/12/17 03:21:50;;;;;;;6.78;4.70;;;;;;;;;;4917672;29;20059;-59
2023/12/17 03:24:17;;;;;;;9.48;4.85;;;;;;;;;;4935083;29;20036;-61
2023/12/17 03:26:43;;;;;;;8.32;4.82;;;;;;;;;;4901350;29;20052;-59
2023/12/17 03:29:10;;;;;;;8.15;5.35;;;;;;;;;;4906089;29;20035;-57
2023/12/17 03:31:36;;;;;;;8.50;4.88;;;;;;;;;;4918527;29;20066;-60
2023/12/17 03:34:02;;;;;;;7.70;4.53;;;;;;;;;;4915592;29;20035;-59
2023/12/17 03:36:29;;;;;;;7.40;4.88;;;;;;;;;;4934683;29;20051;-59
2023/12/17 03:38:55;;;;;;;9.80;4.53;;;;;;;;;;4927802;29;20416;-60
2023/12/17 03:41:21;;;;;;;9.30;4.32;;;;;;;;;;4884750;29;20064;-59
2023/12/17 03:43:50;;;;;;;9.52;4.80;;;;;;;;;;4934482;29;20368;-58
2023/12/17 03:46:17;;;;;;;8.90;4.78;;;;;;;;;;4935578;29;20031;-59
2023/12/17 03:48:43;;;;;;;8.98;4.70;;;;;;;;;;4916500;29;20036;-57
2023/12/17 03:51:10;;;;;;;9.77;5.00;;;;;;;;;;4917708;29;20043;-57
2023/12/17 03:53:36;;;;;;;11.90;5.25;;;;;;;;;;4896721;29;20039;-57
2023/12/17 03:56:02;;;;;;;10.20;5.60;;;;;;;;;;4917617;29;20054;-60
2023/12/17 03:58:30;;;;;;;8.80;5.07;;;;;;;;;;4898488;29;20032;-58
2023/12/17 04:00:56;;;;;;;9.23;5.60;;;;;;;;;;4900344;29;20216;-59
2023/12/17 04:03:23;;;;;;;9.95;5.63;;;;;;;;;;4931446;29;20052;-58
2023/12/17 04:05:49;;;;;;;8.85;5.25;;;;;;;;;;4917639;29;20067;-59
2023/12/17 04:08:15;;;;;;;8.00;5.00;;;;;;;;;;4933842;29;20416;-58
2023/12/17 04:10:41;;;;;;;8.18;4.93;;;;;;;;;;4901986;29;20031;-58
2023/12/17 04:13:07;;;;;;;7.93;4.78;;;;;;;;;;4902120;29;20035;-59
2023/12/17 04:15:33;;;;;;;8.80;4.78;;;;;;;;;;4934047;29;20047;-59
2023/12/17 04:18:00;;;;;;;12.73;6.68;;;;;;;;;;4916005;29;20034;-59
2023/12/17 04:20:26;;;;;;;13.70;6.85;;;;;;;;;;4913717;29;20045;-57
2023/12/17 04:22:52;;;;;;;13.45;6.53;;;;;;;;;;4920955;29;20063;-60
2023/12/17 04:25:18;;;;;;;12.15;6.30;;;;;;;;;;4914629;29;20043;-57
2023/12/17 04:27:44;;;;;;;9.45;5.60;;;;;;;;;;4913210;29;20067;-60
2023/12/17 04:30:11;;;;;;;14.48;6.78;;;;;;;;;;4916534;29;20047;-58
2023/12/17 04:32:37;;;;;;;20.52;8.40;;;;;;;;;;4934367;29;20476;-57
2023/12/17 04:35:04;;;;;;;17.05;8.48;;;;;;;;;;4933712;29;20523;-58
2023/12/17 04:37:30;;;;;;;14.32;6.32;;;;;;;;;;4915783;29;20053;-58
2023/12/17 04:39:56;;;;;;;10.85;6.03;;;;;;;;;;4906188;29;20091;-59
2023/12/17 04:42:22;;;;;;;13.15;5.80;;;;;;;;;;4917381;29;20059;-60
2023/12/17 04:44:48;;;;;;;10.85;5.57;;;;;;;;;;4923973;29;20042;-58
2023/12/17 04:47:15;;;;;;;9.38;4.78;;;;;;;;;;4912484;29;20035;-59
2023/12/17 04:49:41;;;;;;;11.93;5.68;;;;;;;;;;4915075;29;20036;-57
2023/12/17 04:52:07;;;;;;;10.55;5.10;;;;;;;;;;4915798;29;20047;-59
2023/12/17 04:54:33;;;;;;;12.00;6.63;;;;;;;;;;4931411;29;20039;-57
2023/12/17 04:56:59;;;;;;;9.77;5.93;;;;;;;;;;4916518;29;20042;-58
2023/12/17 04:59:26;;;;;;;11.63;5.57;;;;;;;;;;4925016;29;20060;-57
2023/12/17 05:01:52;;;;;;;8.20;4.88;;;;;;;;;;4900054;29;20376;-58
2023/12/17 05:04:18;;;;;;;8.52;4.82;;;;;;;;;;4913643;29;20042;-59
2023/12/17 05:06:44;;;;;;;12.77;5.47;;;;;;;;;;4911877;29;20078;-61
2023/12/17 05:09:10;;;;;;;10.27;5.60;;;;;;;;;;4933512;29;20052;-57
2023/12/17 05:11:37;;;;;;;13.57;6.00;;;;;;;;;;4932705;29;20044;-59
2023/12/17 05:14:03;;;;;;;9.13;5.78;;;;;;;;;;4910573;29;20035;-59
2023/12/17 05:16:29;;;;;;;9.02;5.60;;;;;;;;;;4919908;29;20039;-57
2023/12/17 05:18:56;;;;;;;11.73;6.05;;;;;;;;;;4926414;29;20047;-58
2023/12/17 05:21:23;;;;;;;11.30;5.82;;;;;;;;;;4899824;29;20056;-58
2023/12/17 05:23:49;;;;;;;8.85;5.47;;;;;;;;;;4903557;29;20040;-58
2023/12/17 05:26:15;;;;;;;8.35;5.72;;;;;;;;;;4931438;29;20047;-60
2023/12/17 05:28:41;;;;;;;10.43;5.32;;;;;;;;;;4902642;29;20047;-57
2023/12/17 05:31:09;;;;;;;15.73;7.93;;;;;;;;;;4952275;23;20039;-60
2023/12/17 05:33:35;;;;;;;12.57;6.22;;;;;;;;;;4933126;29;20043;-56
2023/12/17 05:36:04;;;;;;;13.57;7.07;;;;;;;;;;4933089;29;20044;-57
2023/12/17 05:38:31;;;;;;;13.80;7.18;;;;;;;;;;4931906;29;20055;-58
2023/12/17 05:40:57;;;;;;;10.77;6.35;;;;;;;;;;4929935;29;20043;-58
2023/12/17 05:43:24;;;;;;;14.70;7.13;;;;;;;;;;4931901;29;20031;-58
2023/12/17 05:45:50;;;;;;;12.43;6.30;;;;;;;;;;4931549;29;20039;-61
2023/12/17 05:48:16;;;;;;;11.23;6.82;;;;;;;;;;4925945;29;20039;-63
2023/12/17 05:50:43;;;;;;;11.38;7.05;;;;;;;;;;4930360;29;20032;-61
2023/12/17 05:53:09;;;;;;;12.60;6.95;;;;;;;;;;4911264;29;20048;-54
2023/12/17 05:55:36;;;;;;;16.77;7.80;;;;;;;;;;4922983;29;20036;-60
2023/12/17 05:58:02;;;;;;;16.08;8.52;;;;;;;;;;4927320;29;20377;-58
2023/12/17 06:00:28;;;;;;;19.23;8.75;;;;;;;;;;4897955;29;20035;-56
2023/12/17 06:02:54;;;;;;;21.67;11.63;;;;;;;;;;4931200;29;20077;-61
2023/12/17 06:05:20;;;;;;;24.27;13.43;;;;;;;;;;4929952;29;20047;-59
2023/12/17 06:07:47;;;;;;;18.27;10.95;;;;;;;;;;4930256;29;20051;-59
2023/12/17 06:10:13;;;;;;;17.98;9.68;;;;;;;;;;4932534;29;20050;-56
2023/12/17 06:12:39;;;;;;;20.30;10.95;;;;;;;;;;4931932;29;20043;-61
2023/12/17 06:15:07;;;;;;;18.98;9.57;;;;;;;;;;4933041;29;20051;-60
2023/12/17 06:17:33;;;;;;;20.88;10.60;;;;;;;;;;4931883;29;20040;-59
2023/12/17 06:19:59;;;;;;;21.60;11.18;;;;;;;;;;4930167;29;20051;-59
2023/12/17 06:22:28;;;;;;;22.15;11.27;;;;;;;;;;4932846;29;20063;-58
2023/12/17 06:24:54;;;;;;;21.77;11.40;;;;;;;;;;4933984;29;20039;-58
2023/12/17 06:27:20;;;;;;;18.10;10.18;;;;;;;;;;4936219;29;20050;-57
2023/12/17 06:29:48;;;;;;;18.65;10.77;;;;;;;;;;4935485;29;20039;-59
2023/12/17 06:32:15;;;;;;;18.15;10.80;;;;;;;;;;4936069;29;20035;-57
2023/12/17 06:34:42;;;;;;;20.38;11.05;;;;;;;;;;4937137;29;20051;-58
2023/12/17 06:37:08;;;;;;;20.58;11.23;;;;;;;;;;4935804;29;20028;-58
2023/12/17 06:39:34;;;;;;;22.05;11.35;;;;;;;;;;4935591;29;20475;-56
2023/12/17 06:42:01;;;;;;;24.92;13.68;;;;;;;;;;4934936;29;20071;-58
2023/12/17 06:44:27;;;;;;;25.38;13.52;;;;;;;;;;4934758;29;20044;-57
2023/12/17 06:46:53;;;;;;;22.80;12.90;;;;;;;;;;4935043;29;20326;-60
2023/12/17 06:49:19;;;;;;;20.35;12.15;;;;;;;;;;4930921;29;20040;-60
2023/12/17 06:51:45;;;;;;;19.85;11.55;;;;;;;;;;4934265;29;20051;-59
2023/12/17 06:54:11;;;;;;;20.08;12.48;;;;;;;;;;4929528;29;20396;-56
2023/12/17 06:56:37;;;;;;;20.35;11.23;;;;;;;;;;4934475;29;20129;-57
2023/12/17 06:59:03;;;;;;;23.23;12.32;;;;;;;;;;4935549;29;20048;-56
2023/12/17 07:01:30;;;;;;;20.13;11.88;;;;;;;;;;4914595;29;20040;-58
2023/12/17 07:03:56;;;;;;;25.10;14.27;;;;;;;;;;4935473;29;20036;-59
2023/12/17 07:06:22;;;;;;;17.98;11.18;;;;;;;;;;4935205;29;20048;-59
2023/12/17 07:08:48;;;;;;;22.08;12.95;;;;;;;;;;4928074;29;20032;-56
2023/12/17 07:11:14;;;;;;;22.20;12.35;;;;;;;;;;4919591;29;20039;-57
2023/12/17 07:13:41;;;;;;;16.63;10.88;;;;;;;;;;4909874;29;20036;-57
2023/12/17 07:16:10;;;;;;;20.65;11.45;;;;;;;;;;4914844;29;20410;-56
2023/12/17 07:18:36;;;;;;;22.02;13.05;;;;;;;;;;4933037;29;20427;-61
2023/12/17 07:21:02;;;;;;;22.60;12.75;;;;;;;;;;4932131;29;20508;-57
2023/12/17 07:23:28;;;;;;;20.17;10.57;;;;;;;;;;4934979;29;20039;-56
2023/12/17 07:25:54;;;;;;;17.08;10.98;;;;;;;;;;4932818;29;20035;-58
2023/12/17 07:28:21;;;;;;;17.17;10.43;;;;;;;;;;4929810;29;20051;-58
2023/12/17 07:30:47;;;;;;;17.77;10.63;;;;;;;;;;4929460;29;20042;-59
2023/12/17 07:33:13;;;;;;;20.45;12.68;;;;;;;;;;4933984;29;20039;-58
2023/12/17 07:35:39;;;;;;;17.35;11.13;;;;;;;;;;4933309;29;20048;-57
2023/12/17 07:38:05;;;;;;;23.00;12.57;;;;;;;;;;4930519;29;20364;-54
2023/12/17 07:40:31;;;;;;;23.23;13.63;;;;;;;;;;4935251;29;20044;-55
2023/12/17 07:42:57;;;;;;;21.40;11.70;;;;;;;;;;4933308;29;20054;-58
2023/12/17 07:45:24;;;;;;;17.42;11.10;;;;;;;;;;4931764;29;20047;-58
2023/12/17 07:47:50;;;;;;;17.70;10.88;;;;;;;;;;4932492;29;20052;-60
2023/12/17 07:50:16;;;;;;;24.95;12.27;;;;;;;;;;4933944;29;20043;-60
2023/12/17 07:52:42;;;;;;;17.50;10.63;;;;;;;;;;4934312;29;20054;-58
2023/12/17 07:55:08;;;;;;;25.20;13.40;;;;;;;;;;4935343;29;20043;-59
2023/12/17 07:57:34;;;;;;;22.58;12.02;;;;;;;;;;4915871;29;20075;-58
2023/12/17 08:00:01;;;;;;;21.75;12.45;;;;;;;;;;4934645;29;20062;-58
2023/12/17 08:02:27;;;;;;;23.42;12.93;;;;;;;;;;4915031;29;20058;-54
2023/12/17 08:04:53;;;;;;;29.88;15.18;;;;;;;;;;4933819;29;20040;-57
2023/12/17 08:07:19;;;;;;;53.25;21.55;;;;;;;;;;4918454;29;20032;-58
2023/12/17 08:09:45;;;;;;;50.78;21.70;;;;;;;;;;4934788;29;20060;-57
2023/12/17 08:12:12;;;;;;;40.22;17.10;;;;;;;;;;4933663;29;20052;-56
2023/12/17 08:14:38;;;;;;;28.67;15.02;;;;;;;;;;4929802;29;20543;-58
2023/12/17 08:17:04;;;;;;;28.67;15.35;;;;;;;;;;4915216;29;20044;-56
2023/12/17 08:19:30;;;;;;;27.55;14.98;;;;;;;;;;4928436;29;20051;-58
2023/12/17 08:21:56;;;;;;;25.33;14.40;;;;;;;;;;4933649;29;20032;-54
2023/12/17 08:24:22;;;;;;;23.02;12.77;;;;;;;;;;4906200;29;20036;-61
2023/12/17 08:26:50;;;;;;;26.45;13.75;;;;;;;;;;4934529;29;20031;-58
2023/12/17 08:29:17;;;;;;;27.02;14.45;;;;;;;;;;4916325;29;20048;-57
2023/12/17 08:31:45;;;;;;;36.65;17.40;;;;;;;;;;4933251;29;20040;-61
2023/12/17 08:34:11;;;;;;;40.03;19.30;;;;;;;;;;4934379;29;20058;-61
2023/12/17 08:36:41;;;;;;;36.22;19.60;;;;;;;;;;4933266;29;20047;-59
2023/12/17 08:39:07;;;;;;;37.20;20.30;;;;;;;;;;4917626;29;20054;-59
2023/12/17 08:41:34;;;;;;;39.97;20.48;;;;;;;;;;4937694;29;20055;-57
2023/12/17 08:44:00;;;;;;;37.20;21.98;;;;;;;;;;4918909;29;20043;-59
2023/12/17 08:46:26;;;;;;;33.58;19.55;;;;;;;;;;4935183;29;20519;-60
2023/12/17 08:48:53;;;;;;;33.97;21.00;;;;;;;;;;4943832;29;20054;-60
2023/12/17 08:51:19;;;;;;;37.47;21.15;;;;;;;;;;4944780;29;20036;-59
2023/12/17 08:53:46;;;;;;;36.08;21.48;;;;;;;;;;4943689;29;20051;-58
2023/12/17 08:56:13;;;;;;;34.42;19.80;;;;;;;;;;4942376;29;20035;-55
2023/12/17 08:58:39;;;;;;;39.30;21.23;;;;;;;;;;4918341;29;20043;-60
2023/12/17 09:01:05;;;;;;;36.05;21.33;;;;;;;;;;4936613;29;20047;-60
2023/12/17 09:03:31;;;;;;;36.67;21.90;;;;;;;;;;4934867;29;20052;-59
2023/12/17 09:05:59;;;;;;;29.45;18.35;;;;;;;;;;4931019;29;20055;-60
2023/12/17 09:08:25;;;;;;;28.63;17.02;;;;;;;;;;4932261;29;20063;-60
2023/12/17 09:10:52;;;;;;;28.45;16.23;;;;;;;;;;4933610;29;20039;-62
2023/12/17 09:13:18;;;;;;;25.13;15.35;;;;;;;;;;4932893;29;20051;-59
2023/12/17 09:15:44;;;;;;;25.20;15.25;;;;;;;;;;4912408;29;20048;-60
2023/12/17 09:18:10;;;;;;;21.58;14.63;;;;;;;;;;4906298;29;20496;-59
2023/12/17 09:20:36;;;;;;;24.13;15.13;;;;;;;;;;4931004;29;20043;-60
2023/12/17 09:23:02;;;;;;;23.08;15.57;;;;;;;;;;4917513;29;20038;-60
2023/12/17 09:25:29;;;;;;;23.67;15.07;;;;;;;;;;4933523;29;20052;-60
2023/12/17 09:27:55;;;;;;;21.70;13.77;;;;;;;;;;4933249;29;20514;-60
2023/12/17 09:30:21;;;;;;;18.85;11.65;;;;;;;;;;4932624;29;20035;-60
2023/12/17 09:32:48;;;;;;;21.33;13.00;;;;;;;;;;4932428;29;20051;-61
2023/12/17 09:35:16;;;;;;;41.03;20.77;;;;;;;;;;4931630;29;20052;-59
2023/12/17 09:37:43;;;;;;;58.25;29.27;;;;;;;;;;4931592;29;20046;-59
2023/12/17 09:40:09;;;;;;;68.45;33.58;;;;;;;;;;4915067;29;20503;-58
2023/12/17 09:42:35;;;;;;;53.67;29.08;;;;;;;;;;4933615;29;20039;-59
2023/12/17 09:45:01;;;;;;;39.50;23.38;;;;;;;;;;4931943;29;20624;-59
2023/12/17 09:47:28;;;;;;;34.53;20.13;;;;;;;;;;4930380;29;20046;-61
2023/12/17 09:49:54;;;;;;;22.77;14.88;;;;;;;;;;4931849;29;20038;-61
2023/12/17 09:52:28;;;;;;;35.47;20.92;;;;;;;;;;4933749;29;20375;-57
2023/12/17 09:54:55;;;;;;;26.77;17.35;;;;;;;;;;4930097;29;20048;-61
2023/12/17 09:57:21;;;;;;;24.17;16.38;;;;;;;;;;4925832;29;20048;-59
2023/12/17 09:59:47;;;;;;;18.95;12.25;;;;;;;;;;4935927;29;20407;-59
2023/12/17 10:02:15;;;;;;;20.75;13.68;;;;;;;;;;4939698;29;20038;-58
2023/12/17 10:04:41;;;;;;;33.25;19.30;;;;;;;;;;4924274;29;20039;-57
2023/12/17 10:07:07;;;;;;;33.17;19.42;;;;;;;;;;4940506;29;20096;-60
2023/12/17 10:09:35;;;;;;;30.40;18.08;;;;;;;;;;4938925;29;20047;-60
2023/12/17 10:12:02;;;;;;;31.63;18.02;;;;;;;;;;4933984;29;20044;-60
2023/12/17 10:14:30;;;;;;;27.52;15.40;;;;;;;;;;4933028;29;20035;-60
2023/12/17 10:16:59;;;;;;;24.38;15.32;;;;;;;;;;4933148;29;20051;-61
2023/12/17 10:19:26;;;;;;;23.00;14.82;;;;;;;;;;4920335;29;20040;-59
2023/12/17 10:21:52;;;;;;;26.45;18.60;;;;;;;;;;4919825;29;20056;-57
2023/12/17 10:24:19;;;;;;;31.40;20.35;;;;;;;;;;4934497;29;20040;-58
2023/12/17 10:26:46;;;;;;;27.23;18.20;;;;;;;;;;4936534;29;20530;-61
2023/12/17 10:29:14;;;;;;;24.70;16.02;;;;;;;;;;4905345;29;20040;-60
2023/12/17 10:31:42;;;;;;;20.77;14.23;;;;;;;;;;4937797;29;20044;-59
2023/12/17 10:34:19;;;;;;;30.88;17.17;;;;;;;;;;4935039;29;20039;-59
2023/12/17 10:36:47;;;;;;;28.42;18.13;;;;;;;;;;4919500;29;20043;-61
2023/12/17 10:39:14;;;;;;;24.55;15.00;;;;;;;;;;4938161;29;20050;-60
2023/12/17 10:41:41;;;;;;;17.98;12.25;;;;;;;;;;4935422;29;20047;-59
2023/12/17 10:44:12;;;;;;;13.18;8.63;;;;;;;;;;4912894;29;20043;-60
2023/12/17 10:46:43;;;;;;;12.63;9.02;;;;;;;;;;4936723;29;20050;-60
2023/12/17 10:49:11;;;;;;;15.65;10.40;;;;;;;;;;4914701;29;20031;-61
2023/12/17 10:51:42;;;;;;;17.48;11.98;;;;;;;;;;4919211;29;20039;-61
2023/12/17 10:54:09;;;;;;;22.67;13.80;;;;;;;;;;4936100;29;20058;-59
2023/12/17 10:56:40;;;;;;;19.70;12.98;;;;;;;;;;4938502;29;20058;-61
2023/12/17 10:59:10;;;;;;;17.67;12.27;;;;;;;;;;4937629;29;20035;-59
2023/12/17 11:01:38;;;;;;;20.17;12.30;;;;;;;;;;4937281;29;20039;-60
2023/12/17 11:04:06;;;;;;;18.45;12.90;;;;;;;;;;4920886;29;20048;-59
2023/12/17 11:06:32;;;;;;;21.33;13.70;;;;;;;;;;4921678;29;20047;-62
2023/12/17 11:08:58;;;;;;;22.27;15.68;;;;;;;;;;4934679;29;20392;-59
2023/12/17 11:11:26;;;;;;;27.35;16.75;;;;;;;;;;4935002;29;20027;-58
2023/12/17 11:13:53;;;;;;;22.35;14.38;;;;;;;;;;4934141;29;20039;-58
2023/12/17 11:16:24;;;;;;;17.67;12.40;;;;;;;;;;4931631;29;20047;-62
2023/12/17 11:18:51;;;;;;;19.58;12.30;;;;;;;;;;4931960;29;20048;-59
2023/12/17 11:21:18;;;;;;;20.15;13.52;;;;;;;;;;4934514;29;20519;-61
2023/12/17 11:23:53;;;;;;;18.55;13.98;;;;;;;;;;4931045;29;20031;-62
2023/12/17 11:26:19;;;;;;;22.17;15.30;;;;;;;;;;4934312;29;20063;-59
2023/12/17 11:28:46;;;;;;;26.55;16.00;;;;;;;;;;4935670;29;20052;-58
2023/12/17 11:31:13;;;;;;;27.40;18.23;;;;;;;;;;4980407;23;20066;-58
2023/12/17 11:33:40;;;;;;;29.08;20.02;;;;;;;;;;4967297;28;20050;-58
2023/12/17 11:36:07;;;;;;;28.42;18.90;;;;;;;;;;4966006;28;20066;-59
2023/12/17 11:38:35;;;;;;;29.35;20.13;;;;;;;;;;4965614;28;20055;-57
2023/12/17 11:41:03;;;;;;;33.97;21.27;;;;;;;;;;4954014;28;20062;-61
2023/12/17 11:43:32;;;;;;;27.75;19.95;;;;;;;;;;4953506;28;20082;-60
2023/12/17 11:45:59;;;;;;;30.90;20.55;;;;;;;;;;4936491;29;20046;-59
2023/12/17 11:48:26;;;;;;;30.40;20.10;;;;;;;;;;4951521;29;20031;-58
2023/12/17 11:50:55;;;;;;;27.58;19.83;;;;;;;;;;4951249;29;20046;-60
2023/12/17 11:53:22;;;;;;;24.75;18.77;;;;;;;;;;4952119;29;20511;-57
2023/12/17 11:55:56;;;;;;;24.13;17.92;;;;;;;;;;4936267;29;20054;-61
2023/12/17 11:58:23;;;;;;;22.67;16.60;;;;;;;;;;4952306;28;20051;-58
2023/12/17 12:01:00;;;;;;;18.52;14.15;;;;;;;;;;4951078;28;20043;-58
2023/12/17 12:03:30;;;;;;;17.67;13.68;;;;;;;;;;4947648;29;20170;-60
2023/12/17 12:06:03;;;;;;;18.30;14.43;;;;;;;;;;4950797;28;20051;-60
2023/12/17 12:08:34;;;;;;;21.25;15.27;;;;;;;;;;4936410;29;20051;-62
2023/12/17 12:11:03;;;;;;;23.67;16.70;;;;;;;;;;4948579;28;20043;-59
2023/12/17 12:13:31;;;;;;;23.75;15.82;;;;;;;;;;4947600;29;20039;-58
2023/12/17 12:15:58;;;;;;;23.77;16.58;;;;;;;;;;4946982;29;20059;-59
2023/12/17 12:18:24;;;;;;;22.27;16.08;;;;;;;;;;4950054;29;20042;-60
2023/12/17 12:20:53;;;;;;;20.00;15.98;;;;;;;;;;4928641;29;20059;-61
2023/12/17 12:23:20;;;;;;;22.15;16.98;;;;;;;;;;4951150;28;20031;-59
2023/12/17 12:25:47;;;;;;;25.60;16.63;;;;;;;;;;4952129;28;20051;-62
2023/12/17 12:28:18;;;;;;;23.70;17.45;;;;;;;;;;4916088;29;20047;-59
2023/12/17 12:30:45;;;;;;;22.40;16.30;;;;;;;;;;4951334;28;20062;-61
2023/12/17 12:33:12;;;;;;;25.20;15.82;;;;;;;;;;4952809;28;20034;-60
2023/12/17 12:35:41;;;;;;;21.50;15.15;;;;;;;;;;4950539;29;20051;-61
2023/12/17 12:38:26;;;;;;;24.52;17.33;;;;;;;;;;4951899;28;20043;-60
2023/12/17 12:40:54;;;;;;;23.38;16.65;;;;;;;;;;4950996;28;20404;-59
2023/12/17 12:43:23;;;;;;;24.95;16.90;;;;;;;;;;4950823;29;20039;-59
2023/12/17 12:45:52;;;;;;;21.80;15.82;;;;;;;;;;4950819;29;20035;-59
2023/12/17 12:48:25;;;;;;;19.52;14.10;;;;;;;;;;4950488;28;20502;-59
2023/12/17 12:50:52;;;;;;;21.73;14.93;;;;;;;;;;4950402;29;20047;-59
2023/12/17 12:53:20;;;;;;;25.25;15.98;;;;;;;;;;4952501;29;20058;-60
2023/12/17 12:55:46;;;;;;;24.85;16.45;;;;;;;;;;4949570;28;20063;-59
2023/12/17 12:58:13;;;;;;;27.83;17.40;;;;;;;;;;4948049;29;20071;-62
2023/12/17 13:00:45;;;;;;;22.02;16.23;;;;;;;;;;4948699;28;20031;-59
2023/12/17 13:03:12;;;;;;;23.75;15.13;;;;;;;;;;4950875;29;20035;-57
2023/12/17 13:05:38;;;;;;;21.35;15.45;;;;;;;;;;4952765;28;20063;-60
2023/12/17 13:08:06;;;;;;;23.48;16.20;;;;;;;;;;4938362;28;20039;-60
2023/12/17 13:10:33;;;;;;;26.55;16.42;;;;;;;;;;4950958;28;20093;-59
2023/12/17 13:13:00;;;;;;;23.85;16.63;;;;;;;;;;4912862;29;20039;-59
2023/12/17 13:15:26;;;;;;;23.17;15.18;;;;;;;;;;4943029;28;20407;-59
2023/12/17 13:17:54;;;;;;;20.35;14.65;;;;;;;;;;4952410;29;20043;-60
2023/12/17 13:20:21;;;;;;;22.63;16.33;;;;;;;;;;4948158;29;20065;-58
2023/12/17 13:22:47;;;;;;;19.40;14.38;;;;;;;;;;4919488;29;20062;-60
2023/12/17 13:25:13;;;;;;;26.23;17.75;;;;;;;;;;4934940;29;20031;-60
2023/12/17 13:27:39;;;;;;;27.20;18.10;;;;;;;;;;4950752;28;20047;-60
2023/12/17 13:30:06;;;;;;;26.17;17.65;;;;;;;;;;4947676;28;20047;-61
2023/12/17 13:32:32;;;;;;;29.45;18.48;;;;;;;;;;4949302;28;20035;-59
2023/12/17 13:34:58;;;;;;;27.45;17.88;;;;;;;;;;4945624;29;20042;-59
2023/12/17 13:37:25;;;;;;;25.77;16.45;;;;;;;;;;4948350;29;20039;-59
2023/12/17 13:39:51;;;;;;;23.23;14.40;;;;;;;;;;4934247;29;20050;-58
2023/12/17 13:42:17;;;;;;;21.73;14.40;;;;;;;;;;4950429;29;20031;-58
2023/12/17 13:44:43;;;;;;;29.25;19.17;;;;;;;;;;4916892;29;20046;-59
2023/12/17 13:47:09;;;;;;;39.08;23.70;;;;;;;;;;4931131;29;20103;-59
2023/12/17 13:49:35;;;;;;;44.30;26.52;;;;;;;;;;4946828;29;20055;-60
2023/12/17 13:52:03;;;;;;;49.30;27.33;;;;;;;;;;4952559;28;20376;-60
2023/12/17 13:54:30;;;;;;;39.70;23.60;;;;;;;;;;4945238;29;20339;-60
2023/12/17 13:56:56;;;;;;;47.40;23.27;;;;;;;;;;4947465;28;20039;-61
2023/12/17 13:59:22;;;;;;;36.90;21.13;;;;;;;;;;4949954;28;20046;-59
2023/12/17 14:01:48;;;;;;;42.97;23.05;;;;;;;;;;4949191;29;20042;-59
2023/12/17 14:04:14;;;;;;;44.35;22.27;;;;;;;;;;4934630;29;20067;-60
2023/12/17 14:06:40;;;;;;;38.95;20.60;;;;;;;;;;4949138;28;20411;-59
2023/12/17 14:09:07;;;;;;;31.25;20.05;;;;;;;;;;4947045;29;20047;-59
2023/12/17 14:11:33;;;;;;;31.15;19.67;;;;;;;;;;4925687;29;20062;-58
2023/12/17 14:13:59;;;;;;;28.00;17.55;;;;;;;;;;4949307;28;20042;-58
2023/12/17 14:16:29;;;;;;;32.42;19.35;;;;;;;;;;4941292;28;20387;-60
2023/12/17 14:18:55;;;;;;;;;;;;;;;;;;4949969;29;20043;-58
2023/12/17 14:21:21;;;;;;;32.83;17.98;;;;;;;;;;4951897;28;19919;-58